Ocean Tomo — 3FID9 — position and weather

sailwx.info

Track history (hours):
 
Tides and Currents Weather Stations Pressure Air Temp Water Temp Dewpoint Dewpoint Depression Visibility Wind Speed Wind Dir Waves Ship Positions

Ocean Tomo

Last reported at 2014-Nov-08 11:21 UTC. Time now 2014-Nov-24 00:17 UTC.
Position N 29°57' W 090°23'.
Warning: this ship's position is 15 days out of date.

Length 190 m; draft 12 m.

Type: Ship. MMSI: 372951000.

Date/timePositionNaut miles runAvg speedWind from/ knotsBaromVisibWave heightAir tempDewpointWater temp
2014-Nov-08 11:21N 29°57' W 090°23'8 8.3
2014-Nov-08 10:23N 30°03' W 090°30'9 9.5
2014-Nov-08 09:27N 30°03' W 090°40'9 9.7
2014-Nov-08 08:33N 29°59' W 090°49'6 4.3
2014-Nov-08 07:11N 30°04' W 090°53'0 0.0
2014-Nov-08 06:29N 30°04' W 090°53'0 0.0
2014-Nov-08 05:29N 30°04' W 090°53'0 0.0
2014-Nov-08 04:32N 30°04' W 090°53'0 0.0
2014-Nov-08 03:32N 30°04' W 090°53'0 0.0
2014-Nov-08 02:17N 30°04' W 090°52'0 0.0
2014-Nov-07 11:23N 30°04' W 090°53'0 0.0
2014-Nov-07 09:23N 30°04' W 090°53'1 0.7
2014-Nov-07 08:31N 30°04' W 090°53'  
2014-Nov-03 19:23N 29°57' W 090°09'2 8.3
2014-Nov-03 19:08N 29°55' W 090°08'4 7.4
2014-Nov-03 18:33N 29°57' W 090°03'2 5.9
2014-Nov-03 18:11N 29°57' W 090°01'1 3.1
2014-Nov-03 17:46N 29°56' W 089°60'2 7.1
2014-Nov-03 17:33N 29°55' W 089°58'4 0.9
2014-Nov-03 13:15N 29°52' W 089°56'0 0.0
2014-Nov-02 14:33N 29°52' W 089°56'0 0.0
2014-Oct-31 19:25N 29°52' W 089°57'  
Track history (hours):
 
Tides and Currents Weather Stations Pressure Air Temp Water Temp Dewpoint Dewpoint Depression Visibility Wind Speed Wind Dir Waves Ship Positions

Ocean Tomo

Last reported at 2014-Nov-08 11:21 UTC. Time now 2014-Nov-24 00:17 UTC.
Position N 29°57' W 090°23'.
Warning: this ship's position is 15 days out of date.

Length 190 m; draft 12 m.

Type: Ship. MMSI: 372951000.

Date/timePositionNaut miles runAvg speedWind from/ knotsBaromVisibWave heightAir tempDewpointWater temp
2014-Nov-08 11:21N 29°57' W 090°23'8 8.3
2014-Nov-08 10:23N 30°03' W 090°30'9 9.5
2014-Nov-08 09:27N 30°03' W 090°40'9 9.7
2014-Nov-08 08:33N 29°59' W 090°49'6 4.3
2014-Nov-08 07:11N 30°04' W 090°53'0 0.0
2014-Nov-08 06:29N 30°04' W 090°53'0 0.0
2014-Nov-08 05:29N 30°04' W 090°53'0 0.0
2014-Nov-08 04:32N 30°04' W 090°53'0 0.0
2014-Nov-08 03:32N 30°04' W 090°53'0 0.0
2014-Nov-08 02:17N 30°04' W 090°52'0 0.0
2014-Nov-07 11:23N 30°04' W 090°53'0 0.0
2014-Nov-07 09:23N 30°04' W 090°53'1 0.7
2014-Nov-07 08:31N 30°04' W 090°53'  
2014-Nov-03 19:23N 29°57' W 090°09'2 8.3
2014-Nov-03 19:08N 29°55' W 090°08'4 7.4
2014-Nov-03 18:33N 29°57' W 090°03'2 5.9
2014-Nov-03 18:11N 29°57' W 090°01'1 3.1
2014-Nov-03 17:46N 29°56' W 089°60'2 7.1
2014-Nov-03 17:33N 29°55' W 089°58'4 0.9
2014-Nov-03 13:15N 29°52' W 089°56'0 0.0
2014-Nov-02 14:33N 29°52' W 089°56'0 0.0
2014-Oct-31 19:25N 29°52' W 089°57'  

Dump ship's entire track history